createdAt,value
2019-03-19T00:00:35.166Z,20.00
2019-03-19T00:03:05.434Z,16.45
2019-03-19T00:05:34.808Z,25.54
2019-03-19T00:08:07.130Z,16.23
2019-03-19T00:10:36.569Z,16.95
2019-03-19T00:13:06.081Z,20.08
2019-03-19T00:15:38.356Z,21.90
2019-03-19T00:18:07.705Z,19.52
2019-03-19T00:20:37.111Z,13.95
2019-03-19T00:23:06.520Z,15.80
2019-03-19T00:25:35.891Z,22.98
2019-03-19T00:28:05.517Z,24.85
2019-03-19T00:30:35.107Z,18.87
2019-03-19T00:33:04.942Z,17.42
2019-03-19T00:35:34.352Z,15.25
2019-03-19T00:38:04.006Z,15.58
2019-03-19T00:40:33.414Z,24.47
2019-03-19T00:43:02.763Z,17.60
2019-03-19T00:45:32.374Z,18.98
2019-03-19T00:48:01.794Z,17.00
2019-03-19T00:50:31.154Z,18.80
2019-03-19T00:53:00.498Z,12.28
2019-03-19T00:55:39.924Z,12.60
2019-03-19T00:58:00.932Z,14.73
2019-03-19T01:00:30.280Z,19.12
2019-03-19T01:02:59.800Z,22.17
2019-03-19T01:05:29.207Z,18.16
2019-03-19T01:07:58.555Z,25.15
2019-03-19T01:10:28.031Z,13.55
2019-03-19T01:12:57.519Z,12.50
2019-03-19T01:15:26.901Z,12.80
2019-03-19T01:17:56.337Z,15.05
2019-03-19T01:20:27.310Z,10.60
2019-03-19T01:22:56.656Z,20.52
2019-03-19T01:25:25.990Z,11.03
2019-03-19T01:27:58.379Z,14.70
2019-03-19T01:30:27.762Z,13.43
2019-03-19T01:32:57.268Z,19.10
2019-03-19T01:35:26.598Z,19.25
2019-03-19T01:37:57.593Z,15.05
2019-03-19T01:40:26.947Z,9.58
2019-03-19T01:42:56.366Z,12.70
2019-03-19T01:45:25.783Z,17.02
2019-03-19T01:47:55.143Z,18.17
2019-03-19T01:50:27.121Z,13.60
2019-03-19T01:52:56.482Z,13.08
2019-03-19T01:55:27.553Z,14.30
2019-03-19T01:57:56.969Z,10.37
2019-03-19T02:00:26.444Z,15.60
2019-03-19T02:02:55.802Z,19.32
2019-03-19T02:05:25.306Z,14.03
2019-03-19T02:07:54.638Z,16.62
2019-03-19T02:10:26.281Z,18.70
2019-03-19T02:12:55.724Z,10.38
2019-03-19T02:15:25.081Z,12.46
2019-03-19T02:17:55.270Z,12.18
2019-03-19T02:20:24.726Z,13.85
2019-03-19T02:22:54.063Z,18.05
2019-03-19T02:25:23.406Z,13.50
2019-03-19T02:27:52.842Z,18.95
2019-03-19T02:30:22.260Z,13.37
2019-03-19T02:32:51.678Z,15.83
2019-03-19T02:35:21.037Z,16.33
2019-03-19T02:37:50.375Z,11.00
2019-03-19T02:40:19.803Z,13.93
2019-03-19T02:42:49.417Z,14.65
2019-03-19T02:45:18.861Z,18.67
2019-03-19T02:47:48.191Z,12.37
2019-03-19T02:50:18.198Z,19.17
2019-03-19T02:52:47.661Z,14.33
2019-03-19T02:55:18.288Z,10.70
2019-03-19T02:57:47.617Z,21.40
2019-03-19T03:00:17.989Z,8.63
2019-03-19T03:02:47.554Z,16.32
2019-03-19T03:05:18.643Z,15.63
2019-03-19T03:07:48.125Z,16.90
2019-03-19T03:10:18.635Z,14.80
2019-03-19T03:12:48.007Z,14.07
2019-03-19T03:15:17.403Z,16.73
2019-03-19T03:17:46.964Z,11.45
2019-03-19T03:20:16.845Z,18.73
2019-03-19T03:22:46.207Z,12.58
2019-03-19T03:25:19.168Z,21.50
2019-03-19T03:27:48.580Z,20.80
2019-03-19T03:30:25.056Z,17.03
2019-03-19T03:32:54.461Z,18.80
2019-03-19T03:35:23.814Z,21.60
2019-03-19T03:37:53.319Z,13.35
2019-03-19T03:40:22.758Z,17.12
2019-03-19T03:42:52.155Z,22.87
2019-03-19T03:45:22.358Z,14.20
2019-03-19T03:47:51.827Z,21.33
2019-03-19T03:50:21.203Z,19.50
2019-03-19T03:52:50.686Z,18.27
2019-03-19T03:55:20.662Z,23.77
2019-03-19T03:57:50.129Z,20.65
2019-03-19T04:00:23.625Z,23.98
2019-03-19T04:02:53.051Z,22.75
2019-03-19T04:05:22.540Z,28.02
2019-03-19T04:07:52.055Z,28.07
2019-03-19T04:10:21.462Z,27.80
2019-03-19T04:12:50.930Z,28.57
2019-03-19T04:15:20.319Z,30.92
2019-03-19T04:17:49.703Z,38.40
2019-03-19T04:20:19.592Z,32.60
2019-03-19T04:22:48.964Z,36.60
2019-03-19T04:25:21.019Z,27.10
2019-03-19T04:27:50.353Z,34.35
2019-03-19T04:30:20.449Z,34.85
2019-03-19T04:32:49.796Z,37.33
2019-03-19T04:35:20.313Z,31.95
2019-03-19T04:37:49.730Z,28.42
2019-03-19T04:40:19.161Z,25.05
2019-03-19T04:42:48.539Z,27.65
2019-03-19T04:45:18.023Z,25.40
2019-03-19T04:47:47.435Z,19.95
2019-03-19T04:50:18.331Z,29.17
2019-03-19T04:52:47.690Z,21.40
2019-03-19T04:55:17.476Z,21.77
2019-03-19T04:57:47.801Z,22.98
2019-03-19T05:00:18.300Z,26.02
2019-03-19T05:02:47.865Z,27.87
2019-03-19T05:05:17.380Z,24.93
2019-03-19T05:07:46.742Z,35.74
2019-03-19T05:10:19.339Z,39.33
2019-03-19T05:12:49.151Z,24.82
2019-03-19T05:15:18.704Z,26.55
2019-03-19T05:17:48.086Z,29.15
2019-03-19T05:20:18.226Z,19.95
2019-03-19T05:22:47.898Z,25.55
2019-03-19T05:25:17.535Z,26.57
2019-03-19T05:27:46.930Z,20.75
2019-03-19T05:30:20.020Z,30.12
2019-03-19T05:32:49.431Z,25.30
2019-03-19T05:35:18.783Z,29.23
2019-03-19T05:37:48.224Z,22.13
2019-03-19T05:40:19.080Z,23.90
2019-03-19T05:42:48.687Z,30.88
2019-03-19T05:45:18.120Z,19.10
2019-03-19T05:47:47.470Z,30.15
2019-03-19T05:50:21.996Z,25.97
2019-03-19T05:52:51.434Z,31.42
2019-03-19T05:55:20.783Z,27.20
2019-03-19T05:57:50.614Z,24.92
2019-03-19T06:00:37.415Z,36.80
2019-03-19T06:03:07.228Z,27.15
2019-03-19T06:05:36.609Z,22.52
2019-03-19T06:08:07.477Z,19.62
2019-03-19T06:10:38.071Z,34.20
2019-03-19T06:13:07.430Z,23.18
2019-03-19T06:15:36.775Z,23.60
2019-03-19T06:18:06.278Z,24.55
2019-03-19T06:20:35.708Z,25.23
2019-03-19T06:23:05.675Z,29.55
2019-03-19T06:25:35.134Z,24.02
2019-03-19T06:28:04.738Z,18.85
2019-03-19T06:30:34.096Z,22.40
2019-03-19T06:35:34.647Z,25.90
2019-03-19T06:38:04.136Z,26.97
2019-03-19T06:40:33.542Z,34.25
2019-03-19T06:43:05.074Z,18.80
2019-03-19T06:45:34.420Z,20.27
2019-03-19T06:48:03.852Z,22.05
2019-03-19T06:50:33.210Z,27.27
2019-03-19T06:53:04.220Z,31.48
2019-03-19T06:55:33.556Z,29.65
2019-03-19T06:58:10.469Z,25.23
2019-03-19T07:00:33.975Z,29.10
2019-03-19T07:03:03.347Z,32.20
2019-03-19T07:05:32.769Z,35.50
2019-03-19T07:08:02.113Z,31.75
2019-03-19T07:10:31.533Z,24.05
2019-03-19T07:13:00.873Z,24.70
2019-03-19T07:15:30.223Z,32.83
2019-03-19T07:18:00.031Z,31.68
2019-03-19T07:20:30.140Z,33.35
2019-03-19T07:22:59.487Z,41.40
2019-03-19T07:25:28.875Z,37.48
2019-03-19T07:27:59.815Z,36.48
2019-03-19T07:30:29.619Z,25.53
2019-03-19T07:32:59.055Z,21.80
2019-03-19T07:35:28.398Z,28.67
2019-03-19T07:37:57.784Z,26.37
2019-03-19T07:40:27.123Z,26.23
2019-03-19T07:42:56.623Z,23.92
2019-03-19T07:45:28.971Z,32.65
2019-03-19T07:47:58.359Z,33.67
2019-03-19T07:50:27.772Z,30.65
2019-03-19T07:52:57.137Z,29.40
2019-03-19T07:55:26.579Z,27.87
2019-03-19T07:57:55.957Z,30.45
2019-03-19T08:00:25.309Z,30.50
2019-03-19T08:02:54.682Z,27.58
2019-03-19T08:05:32.628Z,22.55
2019-03-19T08:07:55.131Z,22.40
2019-03-19T08:10:26.028Z,28.27
2019-03-19T08:12:55.834Z,34.05
2019-03-19T08:15:25.194Z,34.13
2019-03-19T08:17:54.684Z,33.67
2019-03-19T08:20:24.068Z,36.35
2019-03-19T08:22:53.564Z,29.45
2019-03-19T08:25:22.968Z,32.70
2019-03-19T08:27:54.122Z,30.05
2019-03-19T08:30:25.274Z,31.67
2019-03-19T08:32:54.866Z,37.08
2019-03-19T08:35:24.363Z,25.70
2019-03-19T08:37:53.850Z,32.10
2019-03-19T08:40:23.282Z,32.08
2019-03-19T08:42:52.695Z,29.60
2019-03-19T08:45:26.628Z,30.70
2019-03-19T08:47:56.052Z,30.05
2019-03-19T08:50:26.188Z,41.30
2019-03-19T08:52:55.855Z,30.17
2019-03-19T08:55:25.437Z,42.73
2019-03-19T08:57:54.816Z,33.10
2019-03-19T09:00:25.804Z,30.40
2019-03-19T09:02:55.149Z,33.30
2019-03-19T09:05:24.592Z,32.83
2019-03-19T09:07:53.932Z,39.53
2019-03-19T09:10:23.286Z,35.13
2019-03-19T09:12:52.643Z,29.12
2019-03-19T09:15:26.818Z,34.70
2019-03-19T09:17:56.181Z,28.87
2019-03-19T09:20:25.611Z,26.05
2019-03-19T09:22:54.980Z,29.45
2019-03-19T09:25:24.329Z,26.33
2019-03-19T09:27:53.676Z,26.48
2019-03-19T09:30:23.977Z,33.63
2019-03-19T09:32:53.326Z,27.17
2019-03-19T09:35:22.759Z,29.27
2019-03-19T09:37:58.240Z,28.52
2019-03-19T09:40:25.384Z,32.48
2019-03-19T09:42:55.092Z,37.58
2019-03-19T09:45:24.471Z,31.37
2019-03-19T09:47:53.812Z,33.90
2019-03-19T09:50:27.528Z,32.42
2019-03-19T09:52:56.943Z,27.80
2019-03-19T09:55:26.303Z,32.88
2019-03-19T09:57:55.666Z,37.28
2019-03-19T10:00:25.072Z,33.28
2019-03-19T10:02:54.426Z,34.40
2019-03-19T10:05:23.789Z,35.05
2019-03-19T10:07:55.468Z,34.08
2019-03-19T10:10:24.909Z,33.33
2019-03-19T10:12:54.448Z,31.23
2019-03-19T10:15:23.833Z,40.55
2019-03-19T10:17:53.314Z,28.30
2019-03-19T10:20:24.792Z,31.82
2019-03-19T10:22:54.233Z,43.05
2019-03-19T10:25:25.336Z,34.23
2019-03-19T10:27:54.719Z,34.10
2019-03-19T10:30:24.895Z,38.10
2019-03-19T10:32:54.340Z,31.12
2019-03-19T10:35:25.401Z,34.25
2019-03-19T10:37:54.884Z,27.70
2019-03-19T10:40:26.458Z,36.68
2019-03-19T10:45:24.810Z,32.28
2019-03-19T10:47:54.229Z,25.32
2019-03-19T10:50:24.950Z,35.97
2019-03-19T10:52:54.534Z,31.50
2019-03-19T10:55:26.895Z,33.10
2019-03-19T10:57:56.251Z,29.07
2019-03-19T11:00:26.251Z,29.87
2019-03-19T11:02:55.768Z,32.33
2019-03-19T11:05:25.661Z,25.92
2019-03-19T11:07:55.049Z,37.23
2019-03-19T11:10:24.481Z,25.08
2019-03-19T11:12:55.367Z,23.95
2019-03-19T11:17:54.163Z,28.80
2019-03-19T11:20:23.504Z,22.93
2019-03-19T11:22:52.933Z,28.23
2019-03-19T11:25:24.727Z,28.70
2019-03-19T11:27:54.222Z,36.93
2019-03-19T11:30:28.484Z,27.90
2019-03-19T11:32:58.987Z,35.13
2019-03-19T11:35:28.671Z,29.75
2019-03-19T11:37:58.592Z,32.67
2019-03-19T11:40:28.058Z,29.95
2019-03-19T11:42:57.413Z,27.25
2019-03-19T11:45:26.848Z,34.20
2019-03-19T11:47:56.292Z,33.00
2019-03-19T11:50:32.893Z,24.60
2019-03-19T11:53:01.418Z,33.15
2019-03-19T11:55:30.786Z,27.73
2019-03-19T11:58:00.145Z,26.05
2019-03-19T12:00:34.774Z,21.95
2019-03-19T12:03:14.791Z,23.10
2019-03-19T12:05:35.895Z,19.00
2019-03-19T12:08:06.158Z,24.47
2019-03-19T12:10:35.507Z,25.08
2019-03-19T12:13:05.511Z,29.07
2019-03-19T12:15:34.956Z,24.67
2019-03-19T12:18:04.947Z,25.90
2019-03-19T12:20:34.378Z,27.87
2019-03-19T12:23:03.896Z,31.57
2019-03-19T12:25:33.308Z,26.68
2019-03-19T12:28:02.679Z,26.87
2019-03-19T12:30:32.157Z,31.87
2019-03-19T12:33:01.494Z,29.90
2019-03-19T12:35:31.073Z,32.85
2019-03-19T12:38:00.679Z,24.47
2019-03-19T12:40:36.746Z,24.77
2019-03-19T12:43:01.114Z,26.83
2019-03-19T12:45:30.608Z,34.15
2019-03-19T12:47:59.990Z,24.92
2019-03-19T12:50:29.399Z,26.57
2019-03-19T12:52:58.751Z,26.52
2019-03-19T12:55:28.119Z,24.18
2019-03-19T12:57:57.548Z,25.72
2019-03-19T13:00:55.473Z,29.67
2019-03-19T13:02:59.727Z,23.55
2019-03-19T13:05:31.046Z,22.07
2019-03-19T13:08:00.673Z,30.48
2019-03-19T13:10:30.115Z,26.97
2019-03-19T13:12:59.531Z,27.40
2019-03-19T13:15:28.915Z,21.65
2019-03-19T13:17:58.266Z,28.30
2019-03-19T13:20:27.689Z,25.90
2019-03-19T13:22:57.061Z,22.65
2019-03-19T13:25:26.740Z,22.95
2019-03-19T13:27:56.115Z,19.07
2019-03-19T13:30:26.842Z,16.97
2019-03-19T13:32:56.251Z,21.23
2019-03-19T13:35:25.683Z,13.75
2019-03-19T13:37:55.244Z,14.60
2019-03-19T13:40:24.643Z,12.93
2019-03-19T13:42:54.094Z,21.20
2019-03-19T13:45:24.291Z,11.63
2019-03-19T13:47:53.740Z,12.03
2019-03-19T13:50:25.074Z,13.18
2019-03-19T13:52:56.009Z,20.25
2019-03-19T13:55:25.703Z,13.98
2019-03-19T13:58:14.451Z,20.57
2019-03-19T14:00:43.813Z,19.02
2019-03-19T14:03:13.165Z,9.55
2019-03-19T14:05:42.514Z,15.45
2019-03-19T14:08:11.865Z,15.18
2019-03-19T14:10:41.224Z,16.05
2019-03-19T14:13:10.591Z,15.03
2019-03-19T14:15:39.926Z,17.23
2019-03-19T14:18:09.454Z,13.35
2019-03-19T14:20:38.895Z,24.35
2019-03-19T14:23:08.251Z,19.75
2019-03-19T14:25:37.617Z,16.17
2019-03-19T14:28:07.162Z,19.85
2019-03-19T14:30:36.531Z,17.73
2019-03-19T14:33:05.882Z,16.62
2019-03-19T14:35:37.622Z,13.32
2019-03-19T14:38:06.289Z,19.70
2019-03-19T14:40:35.796Z,11.90
2019-03-19T14:43:05.344Z,20.70
2019-03-19T14:45:34.768Z,16.15
2019-03-19T14:48:06.122Z,18.65
2019-03-19T14:50:35.254Z,14.10
2019-03-19T14:53:05.594Z,17.70
2019-03-19T14:55:34.999Z,20.65
2019-03-19T14:58:05.600Z,22.98
2019-03-19T15:00:35.541Z,25.35
2019-03-19T15:03:05.598Z,16.27
2019-03-19T15:05:34.952Z,28.92
2019-03-19T15:08:04.519Z,20.75
2019-03-19T15:10:33.899Z,17.45
2019-03-19T15:13:03.264Z,25.00
2019-03-19T15:15:32.708Z,30.90
2019-03-19T15:18:02.043Z,21.27
2019-03-19T15:20:31.391Z,15.45
2019-03-19T15:23:03.701Z,24.85
2019-03-19T15:25:33.325Z,25.30
2019-03-19T15:28:02.751Z,26.12
2019-03-19T15:30:32.341Z,16.40
2019-03-19T15:33:01.768Z,16.60
2019-03-19T15:35:31.256Z,24.80
2019-03-19T15:38:00.621Z,21.07
2019-03-19T15:40:30.075Z,16.05
2019-03-19T15:43:00.919Z,19.02
2019-03-19T15:45:31.291Z,25.20
2019-03-19T15:48:00.719Z,23.27
2019-03-19T15:50:30.060Z,25.20
2019-03-19T15:52:59.511Z,26.23
2019-03-19T15:55:28.923Z,22.73
2019-03-19T15:57:58.268Z,18.57
2019-03-19T16:00:27.696Z,18.20
2019-03-19T16:02:57.044Z,18.70
2019-03-19T16:05:26.469Z,20.08
2019-03-19T16:07:56.000Z,16.42
2019-03-19T16:10:25.418Z,20.65
2019-03-19T16:12:54.804Z,18.67
2019-03-19T16:15:24.221Z,18.33
2019-03-19T16:17:53.591Z,23.42
2019-03-19T16:20:23.273Z,26.10
2019-03-19T16:22:52.731Z,25.68
2019-03-19T16:25:22.097Z,27.85
2019-03-19T16:27:51.548Z,21.25
2019-03-19T16:30:21.259Z,20.60
2019-03-19T16:32:50.780Z,17.10
2019-03-19T16:35:20.156Z,22.65
2019-03-19T16:37:49.588Z,20.23
2019-03-19T16:40:23.682Z,16.20
2019-03-19T16:42:53.137Z,14.90
2019-03-19T16:45:22.567Z,14.43
2019-03-19T16:47:51.924Z,23.60
2019-03-19T16:50:22.289Z,16.55
2019-03-19T16:52:51.717Z,15.85
2019-03-19T16:55:22.006Z,19.67
2019-03-19T16:57:51.525Z,20.55
2019-03-19T17:00:25.224Z,22.52
2019-03-19T17:02:54.795Z,26.87
2019-03-19T17:05:24.300Z,21.25
2019-03-19T17:07:53.678Z,16.10
2019-03-19T17:10:26.115Z,18.73
2019-03-19T17:12:55.643Z,18.70
2019-03-19T17:15:26.625Z,21.00
2019-03-19T17:17:56.158Z,30.13
2019-03-19T17:20:27.190Z,18.10
2019-03-19T17:22:56.747Z,20.17
2019-03-19T17:25:27.100Z,18.77
2019-03-19T17:27:57.122Z,28.10
2019-03-19T17:30:30.621Z,44.15
2019-03-19T17:33:00.212Z,24.23
2019-03-19T17:35:29.550Z,23.83
2019-03-19T17:38:03.518Z,32.40
2019-03-19T17:40:41.366Z,24.82
2019-03-19T17:43:11.696Z,26.30
2019-03-19T17:45:41.343Z,23.55
2019-03-19T17:48:16.059Z,22.60
2019-03-19T17:50:45.213Z,26.48
2019-03-19T17:53:14.686Z,31.83
2019-03-19T17:55:44.183Z,30.23
2019-03-19T17:58:13.555Z,28.05
2019-03-19T18:00:44.565Z,22.40
2019-03-19T18:03:13.926Z,22.93
2019-03-19T18:05:43.327Z,30.75
2019-03-19T18:08:12.676Z,18.37
2019-03-19T18:10:42.053Z,18.95
2019-03-19T18:13:11.423Z,25.97
2019-03-19T18:15:40.864Z,25.20
2019-03-19T18:18:10.283Z,23.77
2019-03-19T18:20:39.744Z,24.30
2019-03-19T18:23:09.165Z,21.82
2019-03-19T18:25:38.515Z,23.90
2019-03-19T18:28:08.264Z,27.77
2019-03-19T18:30:37.794Z,22.10
2019-03-19T18:33:08.900Z,29.23
2019-03-19T18:35:38.494Z,26.68
2019-03-19T18:38:07.934Z,21.02
2019-03-19T18:40:37.426Z,24.45
2019-03-19T18:43:06.981Z,27.67
2019-03-19T18:45:36.354Z,26.50
2019-03-19T18:48:06.112Z,28.00
2019-03-19T18:50:36.552Z,30.30
2019-03-19T18:53:06.135Z,26.07
2019-03-19T18:55:35.757Z,27.45
2019-03-19T18:58:06.222Z,28.35
2019-03-19T19:00:35.899Z,31.30
2019-03-19T19:03:05.533Z,24.05
2019-03-19T19:05:35.002Z,31.27
2019-03-19T19:08:05.979Z,27.13
2019-03-19T19:10:35.600Z,27.77
2019-03-19T19:13:05.386Z,30.62
2019-03-19T19:15:34.805Z,36.68
2019-03-19T19:18:04.378Z,32.42
2019-03-19T19:20:33.861Z,30.85
2019-03-19T19:23:03.489Z,33.65
2019-03-19T19:25:32.999Z,34.13
2019-03-19T19:28:02.370Z,28.87
2019-03-19T19:30:32.539Z,31.73
2019-03-19T19:33:02.802Z,29.77
2019-03-19T19:35:32.348Z,34.80
2019-03-19T19:38:03.403Z,28.87
2019-03-19T19:40:36.115Z,37.65
2019-03-19T19:43:05.703Z,36.10
2019-03-19T19:45:35.255Z,40.23
2019-03-19T19:48:04.838Z,37.48
2019-03-19T19:50:34.369Z,32.08
2019-03-19T19:53:04.098Z,41.35
2019-03-19T19:55:33.551Z,33.38
2019-03-19T19:58:03.091Z,39.30
2019-03-19T20:00:32.700Z,33.80
2019-03-19T20:03:11.723Z,34.08
2019-03-19T20:05:34.175Z,38.13
2019-03-19T20:08:05.658Z,34.20
2019-03-19T20:10:35.231Z,39.00
2019-03-19T20:13:04.777Z,40.65
2019-03-19T20:15:35.499Z,42.73
2019-03-19T20:18:05.727Z,35.98
2019-03-19T20:20:35.616Z,41.00
2019-03-19T20:23:08.577Z,35.90
2019-03-19T20:25:38.163Z,40.67
2019-03-19T20:28:07.697Z,39.58
2019-03-19T20:30:37.161Z,32.53
2019-03-19T20:33:09.109Z,35.83
2019-03-19T20:35:41.430Z,38.13
2019-03-19T20:38:11.082Z,41.87
2019-03-19T20:40:43.674Z,39.37
2019-03-19T20:43:13.257Z,45.00
2019-03-19T20:45:42.826Z,51.92
2019-03-19T20:48:12.966Z,52.73
2019-03-19T20:50:42.518Z,42.38
2019-03-19T20:53:12.052Z,39.10
2019-03-19T20:55:41.618Z,44.77
2019-03-19T20:58:12.446Z,42.38
2019-03-19T21:00:44.736Z,34.63
2019-03-19T21:03:14.195Z,38.78
2019-03-19T21:05:43.709Z,41.13
2019-03-19T21:08:22.211Z,39.33
2019-03-19T21:10:51.828Z,35.95
2019-03-19T21:13:22.953Z,44.00
2019-03-19T21:15:52.370Z,38.78
2019-03-19T21:18:21.790Z,40.38
2019-03-19T21:20:51.161Z,34.38
2019-03-19T21:23:22.217Z,42.00
2019-03-19T21:25:51.598Z,35.73
2019-03-19T21:28:20.961Z,38.67
2019-03-19T21:30:50.493Z,34.43
2019-03-19T21:33:19.914Z,33.70
2019-03-19T21:35:49.282Z,32.63
2019-03-19T21:38:18.642Z,35.70
2019-03-19T21:40:48.013Z,30.60
2019-03-19T21:43:17.480Z,41.05
2019-03-19T21:45:46.824Z,34.70
2019-03-19T21:48:17.422Z,39.88
2019-03-19T21:50:46.852Z,37.40
2019-03-19T21:53:16.423Z,31.80
2019-03-19T21:55:45.788Z,31.60
2019-03-19T21:58:15.205Z,30.00
2019-03-19T22:00:44.704Z,29.92
2019-03-19T22:03:14.213Z,37.07
2019-03-19T22:05:43.911Z,38.05
2019-03-19T22:08:15.224Z,36.80
2019-03-19T22:10:44.365Z,34.73
2019-03-19T22:13:13.752Z,33.80
2019-03-19T22:15:46.038Z,37.10
2019-03-19T22:18:15.502Z,35.90
2019-03-19T22:20:44.888Z,32.58
2019-03-19T22:23:14.309Z,32.20
2019-03-19T22:25:43.722Z,35.05
2019-03-19T22:28:13.223Z,38.07
2019-03-19T22:30:42.587Z,34.15
2019-03-19T22:33:11.929Z,31.62
2019-03-19T22:35:41.374Z,28.45
2019-03-19T22:38:10.794Z,36.88
2019-03-19T22:40:40.136Z,31.15
2019-03-19T22:43:10.646Z,34.24
2019-03-19T22:45:39.985Z,40.28
2019-03-19T22:48:09.357Z,41.33
2019-03-19T22:50:38.705Z,26.45
2019-03-19T22:53:08.119Z,35.83
2019-03-19T22:55:37.487Z,36.35
2019-03-19T22:58:06.826Z,37.30
2019-03-19T23:00:37.894Z,32.85
2019-03-19T23:03:09.210Z,35.30
2019-03-19T23:05:38.779Z,34.90
2019-03-19T23:08:08.229Z,28.65
2019-03-19T23:10:37.727Z,31.40
2019-03-19T23:13:07.138Z,29.67
2019-03-19T23:15:36.603Z,39.70
2019-03-19T23:18:06.056Z,26.65
2019-03-19T23:20:36.977Z,31.37
2019-03-19T23:23:06.455Z,32.73
2019-03-19T23:25:35.815Z,28.15
2019-03-19T23:28:05.671Z,31.90
2019-03-19T23:30:35.078Z,29.30
2019-03-19T23:33:06.295Z,32.17
2019-03-19T23:35:35.947Z,36.45
2019-03-19T23:38:05.497Z,32.30
2019-03-19T23:40:37.987Z,36.98
2019-03-19T23:43:07.524Z,30.32
2019-03-19T23:45:36.947Z,38.38
2019-03-19T23:48:06.466Z,32.98
2019-03-19T23:50:38.688Z,38.13
2019-03-19T23:55:36.696Z,43.08
2019-03-19T23:58:06.132Z,36.82
